createdAt,value
2023-04-29T00:00:11.515Z,79.70
2023-04-29T00:02:39.661Z,79.40
2023-04-29T00:05:10.544Z,79.40
2023-04-29T00:07:38.896Z,79.60
2023-04-29T00:10:08.015Z,79.50
2023-04-29T00:12:36.102Z,79.60
2023-04-29T00:15:04.746Z,79.50
2023-04-29T00:17:32.917Z,79.50
2023-04-29T00:20:01.058Z,79.60
2023-04-29T00:22:30.513Z,79.60
2023-04-29T00:24:58.579Z,79.70
2023-04-29T00:27:26.689Z,79.50
2023-04-29T00:29:55.050Z,79.60
2023-04-29T00:32:23.574Z,79.50
2023-04-29T00:34:51.796Z,79.40
2023-04-29T00:37:19.892Z,79.50
2023-04-29T00:39:49.530Z,79.50
2023-04-29T00:42:18.106Z,79.50
2023-04-29T00:44:46.222Z,79.40
2023-04-29T00:47:14.287Z,79.40
2023-04-29T00:49:42.814Z,79.50
2023-04-29T00:52:12.917Z,79.40
2023-04-29T00:54:41.808Z,79.60
2023-04-29T00:57:11.593Z,79.60
2023-04-29T00:59:40.152Z,79.90
2023-04-29T01:02:08.256Z,79.90
2023-04-29T01:04:36.541Z,80.10
2023-04-29T01:07:14.908Z,80.20
2023-04-29T01:09:55.989Z,80.60
2023-04-29T01:12:36.234Z,80.70
2023-04-29T01:15:07.374Z,80.50
2023-04-29T01:17:41.352Z,80.10
2023-04-29T01:20:11.480Z,80.30
2023-04-29T01:22:39.598Z,80.20
2023-04-29T01:25:09.954Z,80.30
2023-04-29T01:27:47.201Z,80.50
2023-04-29T01:30:25.631Z,80.60
2023-04-29T01:32:59.298Z,80.60
2023-04-29T01:35:46.970Z,80.40
2023-04-29T01:38:24.724Z,80.80
2023-04-29T01:41:03.628Z,80.50
2023-04-29T01:43:35.038Z,80.70
2023-04-29T01:46:06.630Z,80.40
2023-04-29T01:48:34.772Z,80.30
2023-04-29T01:51:02.854Z,80.20
2023-04-29T01:53:30.916Z,80.40
2023-04-29T01:56:00.438Z,80.50
2023-04-29T01:58:29.538Z,80.60
2023-04-29T02:00:57.786Z,80.50
2023-04-29T02:03:26.115Z,80.70
2023-04-29T02:05:54.267Z,80.80
2023-04-29T02:08:22.348Z,80.80
2023-04-29T02:10:54.906Z,80.80
2023-04-29T02:13:24.354Z,81.00
2023-04-29T02:15:52.546Z,81.00
2023-04-29T02:18:20.614Z,80.90
2023-04-29T02:20:51.062Z,80.90
2023-04-29T02:23:19.165Z,80.90
2023-04-29T02:25:47.748Z,80.90
2023-04-29T02:28:15.814Z,80.90
2023-04-29T02:30:45.895Z,81.00
2023-04-29T02:33:14.089Z,81.00
2023-04-29T02:35:42.314Z,81.00
2023-04-29T02:38:10.389Z,81.00
2023-04-29T02:40:43.176Z,81.10
2023-04-29T02:43:11.928Z,81.40
2023-04-29T02:45:40.421Z,81.30
2023-04-29T02:48:10.114Z,81.30
2023-04-29T02:50:38.228Z,81.50
2023-04-29T02:53:06.393Z,81.50
2023-04-29T02:55:34.460Z,81.60
2023-04-29T02:58:04.266Z,81.60
2023-04-29T03:00:32.422Z,81.50
2023-04-29T03:03:00.678Z,81.20
2023-04-29T03:05:30.231Z,81.00
2023-04-29T03:07:58.326Z,80.90
2023-04-29T03:10:26.373Z,80.30
2023-04-29T03:12:54.436Z,79.80
2023-04-29T03:15:22.612Z,79.40
2023-04-29T03:17:50.767Z,79.10
2023-04-29T03:20:19.543Z,78.90
2023-04-29T03:22:49.015Z,78.50
2023-04-29T03:25:17.358Z,78.20
2023-04-29T03:27:45.430Z,78.00
2023-04-29T03:30:13.657Z,77.90
2023-04-29T03:32:42.330Z,77.80
2023-04-29T03:35:14.087Z,77.70
2023-04-29T03:37:44.520Z,77.80
2023-04-29T04:20:49.452Z,76.50
2023-04-29T04:23:17.652Z,76.50
2023-04-29T04:25:49.511Z,76.60
2023-04-29T04:28:17.612Z,76.70
2023-04-29T04:30:48.194Z,76.80
2023-04-29T04:33:17.054Z,76.90
2023-04-29T04:35:45.510Z,77.00
2023-04-29T04:38:14.967Z,77.00
2023-04-29T04:40:43.106Z,77.00
2023-04-29T04:43:11.293Z,77.60
2023-04-29T04:45:39.384Z,76.80
2023-04-29T04:48:07.862Z,76.80
2023-04-29T04:50:35.972Z,76.70
2023-04-29T04:53:04.049Z,76.70
2023-04-29T04:55:33.597Z,76.70
2023-04-29T04:58:01.717Z,76.70
2023-04-29T05:00:29.793Z,76.70
2023-04-29T05:02:58.048Z,76.70
2023-04-29T05:05:26.319Z,76.80
2023-04-29T05:07:54.398Z,76.70
2023-04-29T05:10:26.421Z,76.70
2023-04-29T05:12:55.877Z,76.70
2023-04-29T05:15:23.940Z,76.80
2023-04-29T05:17:52.072Z,76.90
2023-04-29T05:20:21.324Z,76.90
2023-04-29T05:22:49.410Z,76.90
2023-04-29T05:25:17.592Z,76.90
2023-04-29T05:27:45.695Z,76.90
2023-04-29T05:30:15.949Z,77.00
2023-04-29T05:32:45.425Z,76.90
2023-04-29T05:35:13.586Z,76.90
2023-04-29T05:37:41.678Z,77.00
2023-04-29T05:40:10.767Z,77.00
2023-04-29T05:42:38.878Z,77.00
2023-04-29T05:45:08.086Z,77.00
2023-04-29T05:47:37.651Z,77.00
2023-04-29T05:50:07.164Z,77.00
2023-04-29T05:52:35.250Z,77.00
2023-04-29T05:55:03.387Z,77.00
2023-04-29T05:57:32.063Z,77.00
2023-04-29T06:00:00.342Z,77.00
2023-04-29T06:02:28.604Z,77.00
2023-04-29T06:04:58.495Z,77.00
2023-04-29T06:07:27.681Z,77.00
2023-04-29T06:09:56.939Z,76.90
2023-04-29T06:12:25.004Z,76.90
2023-04-29T06:14:53.083Z,76.90
2023-04-29T06:17:21.195Z,76.90
2023-04-29T06:19:49.338Z,76.90
2023-04-29T06:22:18.760Z,76.90
2023-04-29T06:24:47.371Z,76.80
2023-04-29T06:27:15.794Z,76.80
2023-04-29T06:29:44.053Z,76.70
2023-04-29T06:32:14.000Z,76.70
2023-04-29T06:34:42.075Z,76.80
2023-04-29T06:37:10.200Z,76.70
2023-04-29T06:39:39.664Z,76.60
2023-04-29T06:42:07.749Z,76.60
2023-04-29T06:44:35.837Z,76.60
2023-04-29T06:47:04.039Z,76.60
2023-04-29T06:49:32.213Z,76.50
2023-04-29T06:52:02.250Z,76.50
2023-04-29T06:54:31.618Z,76.30
2023-04-29T06:57:01.080Z,76.30
2023-04-29T06:59:29.236Z,76.10
2023-04-29T07:01:57.358Z,76.10
2023-04-29T07:04:25.542Z,76.10
2023-04-29T07:06:54.292Z,76.00
2023-04-29T07:09:23.640Z,76.00
2023-04-29T07:11:51.724Z,76.70
2023-04-29T07:14:22.353Z,76.00
2023-04-29T07:16:55.039Z,75.90
2023-04-29T07:19:23.232Z,75.90
2023-04-29T07:21:51.543Z,75.90
2023-04-29T07:24:19.599Z,75.90
2023-04-29T07:26:47.691Z,75.90
2023-04-29T07:29:15.866Z,75.80
2023-04-29T07:31:45.320Z,75.90
2023-04-29T07:34:13.694Z,76.10
2023-04-29T07:36:41.773Z,76.10
2023-04-29T07:39:09.932Z,76.10
2023-04-29T07:41:45.053Z,76.10
2023-04-29T07:44:13.152Z,76.20
2023-04-29T07:46:41.987Z,76.20
2023-04-29T07:49:11.628Z,76.30
2023-04-29T07:51:42.531Z,77.10
2023-04-29T07:54:10.735Z,76.40
2023-04-29T07:56:38.852Z,76.10
2023-04-29T07:59:06.908Z,76.00
2023-04-29T08:01:34.967Z,76.10
2023-04-29T08:04:03.372Z,76.20
2023-04-29T08:06:33.475Z,76.20
2023-04-29T08:09:03.046Z,76.40
2023-04-29T08:11:31.351Z,76.20
2023-04-29T08:14:00.222Z,76.10
2023-04-29T08:16:28.404Z,76.30
2023-04-29T08:18:56.555Z,76.50
2023-04-29T08:21:24.784Z,76.10
2023-04-29T08:23:55.731Z,75.90
2023-04-29T08:26:24.182Z,75.80
2023-04-29T08:28:52.317Z,75.40
2023-04-29T08:31:21.206Z,75.20
2023-04-29T08:33:49.433Z,75.10
2023-04-29T08:36:17.570Z,74.90
2023-04-29T08:38:46.343Z,75.40
2023-04-29T08:41:16.937Z,74.60
2023-04-29T08:43:45.152Z,74.30
2023-04-29T08:46:13.941Z,74.10
2023-04-29T08:48:44.965Z,73.60
2023-04-29T08:51:14.009Z,73.70
2023-04-29T08:53:42.195Z,73.20
2023-04-29T08:56:14.665Z,73.10
2023-04-29T08:58:44.623Z,72.40
2023-04-29T09:01:14.400Z,72.00
2023-04-29T09:03:48.378Z,72.00
2023-04-29T09:06:16.856Z,70.80
2023-04-29T09:08:45.054Z,70.30
2023-04-29T09:11:13.849Z,69.70
2023-04-29T09:13:43.323Z,68.60
2023-04-29T09:16:14.826Z,68.10
2023-04-29T09:18:46.990Z,66.70
2023-04-29T09:21:18.482Z,66.40
2023-04-29T09:23:50.990Z,65.80
2023-04-29T09:26:19.250Z,64.90
2023-04-29T09:28:49.812Z,65.10
2023-04-29T09:31:29.064Z,64.80
2023-04-29T09:33:59.057Z,63.80
2023-04-29T09:36:48.473Z,64.80
2023-04-29T09:39:17.793Z,64.30
2023-04-29T09:42:03.160Z,65.20
2023-04-29T09:44:35.863Z,63.60
2023-04-29T09:47:05.932Z,64.50
2023-04-29T09:49:37.428Z,65.10
2023-04-29T09:52:07.401Z,64.80
2023-04-29T09:54:37.391Z,65.00
2023-04-29T09:57:07.061Z,64.30
2023-04-29T09:59:39.132Z,63.80
2023-04-29T10:02:15.433Z,63.50
2023-04-29T10:04:45.704Z,63.90
2023-04-29T10:07:17.150Z,64.20
2023-04-29T10:09:47.631Z,64.00
2023-04-29T10:12:18.433Z,64.10
2023-04-29T10:14:56.006Z,64.10
2023-04-29T10:17:34.065Z,64.20
2023-04-29T10:20:07.419Z,64.00
2023-04-29T10:22:41.541Z,64.10
2023-04-29T10:25:12.057Z,64.30
2023-04-29T10:27:43.076Z,64.10
2023-04-29T10:30:15.198Z,63.90
2023-04-29T10:32:51.234Z,63.70
2023-04-29T10:35:23.301Z,64.20
2023-04-29T10:37:52.947Z,64.10
2023-04-29T10:40:28.164Z,64.00
2023-04-29T10:42:56.746Z,63.60
2023-04-29T10:45:28.507Z,63.80
2023-04-29T10:48:21.882Z,63.60
2023-04-29T10:51:06.025Z,63.40
2023-04-29T10:53:34.320Z,63.20
2023-04-29T10:56:09.315Z,64.10
2023-04-29T10:58:43.711Z,63.50
2023-04-29T11:01:15.271Z,63.60
2023-04-29T11:04:05.372Z,63.70
2023-04-29T11:06:42.247Z,63.20
2023-04-29T11:09:14.330Z,63.60
2023-04-29T11:12:03.117Z,64.10
2023-04-29T11:14:37.717Z,64.10
2023-04-29T11:17:10.593Z,64.30
2023-04-29T11:19:42.691Z,63.90
2023-04-29T11:22:13.853Z,63.20
2023-04-29T11:24:53.290Z,63.20
2023-04-29T11:27:25.396Z,63.20
2023-04-29T11:29:58.582Z,63.30
2023-04-29T11:32:29.631Z,63.00
2023-04-29T11:35:09.108Z,62.00
2023-04-29T11:37:37.881Z,62.00
2023-04-29T11:40:07.843Z,62.20
2023-04-29T11:42:37.387Z,62.10
2023-04-29T11:45:06.872Z,61.70
2023-04-29T11:47:36.439Z,61.60
2023-04-29T11:50:05.974Z,61.30
2023-04-29T11:52:34.736Z,61.20
2023-04-29T11:55:03.405Z,60.90
2023-04-29T11:57:31.889Z,61.00
2023-04-29T12:00:00.303Z,61.00
2023-04-29T12:02:31.936Z,61.00
2023-04-29T12:05:02.777Z,60.80
2023-04-29T12:07:31.359Z,60.60
2023-04-29T12:10:00.108Z,61.10
2023-04-29T12:12:29.247Z,61.10
2023-04-29T12:14:57.580Z,61.10
2023-04-29T12:17:26.099Z,60.90
2023-04-29T12:19:54.323Z,61.10
2023-04-29T12:22:23.909Z,61.30
2023-04-29T12:24:54.709Z,61.00
2023-04-29T12:27:22.945Z,60.70
2023-04-29T12:29:53.854Z,60.80
2023-04-29T12:32:25.164Z,60.40
2023-04-29T12:34:53.804Z,60.40
2023-04-29T12:37:24.404Z,60.70
2023-04-29T12:39:52.809Z,61.00
2023-04-29T12:42:20.945Z,61.30
2023-04-29T12:44:49.777Z,61.30
2023-04-29T12:47:18.147Z,61.50
2023-04-29T12:49:48.112Z,61.70
2023-04-29T12:52:16.417Z,61.70
2023-04-29T12:54:48.613Z,62.10
2023-04-29T12:57:16.793Z,62.30
2023-04-29T12:59:44.889Z,62.60
2023-04-29T13:02:12.979Z,62.80
2023-04-29T13:04:43.767Z,63.20
2023-04-29T13:07:13.114Z,63.30
2023-04-29T13:09:41.854Z,63.60
2023-04-29T13:12:11.304Z,63.70
2023-04-29T13:14:39.379Z,64.10
2023-04-29T13:17:07.587Z,64.40
2023-04-29T13:19:50.602Z,64.50
2023-04-29T13:22:20.325Z,64.60
2023-04-29T13:24:48.615Z,64.70
2023-04-29T13:27:18.239Z,64.60
2023-04-29T13:29:46.356Z,64.90
2023-04-29T13:32:16.352Z,65.00
2023-04-29T13:34:46.232Z,65.10
2023-04-29T13:37:14.343Z,65.10
2023-04-29T13:39:45.770Z,65.20
2023-04-29T13:42:15.902Z,65.20
2023-04-29T13:44:52.191Z,65.00
2023-04-29T13:47:26.166Z,65.00
2023-04-29T13:50:25.589Z,64.80
2023-04-29T13:58:13.254Z,64.20
2023-04-29T14:03:07.047Z,64.00
2023-04-29T14:05:35.446Z,64.00
2023-04-29T14:08:04.110Z,64.80
2023-04-29T14:10:32.360Z,63.90
2023-04-29T14:13:00.699Z,63.60
2023-04-29T14:15:28.948Z,63.50
2023-04-29T14:17:58.506Z,63.60
2023-04-29T14:20:26.736Z,63.40
2023-04-29T14:22:54.889Z,63.40
2023-04-29T14:25:22.985Z,63.30
2023-04-29T14:27:51.095Z,63.40
2023-04-29T14:30:19.188Z,63.40
2023-04-29T14:32:47.441Z,63.50
2023-04-29T14:35:17.140Z,63.80
2023-04-29T14:37:45.288Z,63.50
2023-04-29T14:40:13.888Z,63.90
2023-04-29T14:42:42.335Z,63.90
2023-04-29T14:45:12.404Z,63.60
2023-04-29T14:47:40.668Z,63.20
2023-04-29T14:50:10.267Z,63.50
2023-04-29T14:52:39.767Z,63.70
2023-04-29T14:55:08.980Z,63.40
2023-04-29T14:57:37.121Z,63.60
2023-04-29T15:00:08.050Z,63.70
2023-04-29T15:02:36.276Z,63.60
2023-04-29T15:05:05.042Z,63.70
2023-04-29T15:07:33.677Z,63.50
2023-04-29T15:10:03.603Z,63.50
2023-04-29T15:12:31.791Z,63.50
2023-04-29T15:14:59.905Z,63.60
2023-04-29T15:17:28.560Z,63.50
2023-04-29T15:19:56.694Z,63.40
2023-04-29T15:22:24.826Z,63.50
2023-04-29T15:24:53.272Z,63.30
2023-04-29T15:27:22.746Z,63.20
2023-04-29T15:29:53.340Z,62.90
2023-04-29T15:32:21.812Z,63.00
2023-04-29T15:34:49.995Z,63.30
2023-04-29T15:37:18.119Z,63.30
2023-04-29T15:39:46.226Z,63.40
2023-04-29T15:42:14.305Z,63.50
2023-04-29T15:44:43.825Z,63.20
2023-04-29T15:47:11.922Z,63.10
2023-04-29T15:49:39.996Z,63.30
2023-04-29T15:52:08.113Z,63.30
2023-04-29T15:54:36.361Z,63.10
2023-04-29T15:57:04.715Z,63.10
2023-04-29T15:59:33.221Z,63.20
2023-04-29T16:02:03.507Z,63.50
2023-04-29T16:04:32.088Z,63.20
2023-04-29T16:07:01.479Z,63.30
2023-04-29T16:09:29.553Z,63.20
2023-04-29T16:11:58.717Z,63.40
2023-04-29T16:14:26.820Z,63.50
2023-04-29T16:16:55.146Z,63.50
2023-04-29T16:19:24.677Z,63.40
2023-04-29T16:21:52.782Z,63.10
2023-04-29T16:24:20.996Z,63.20
2023-04-29T16:26:49.373Z,63.20
2023-04-29T16:29:18.347Z,63.20
2023-04-29T16:31:46.503Z,63.20
2023-04-29T16:34:14.633Z,63.20
2023-04-29T16:36:44.091Z,63.30
2023-04-29T16:39:12.172Z,63.30
2023-04-29T16:41:40.290Z,63.30
2023-04-29T16:44:08.933Z,63.60
2023-04-29T16:46:37.158Z,63.60
2023-04-29T16:49:07.100Z,63.50
2023-04-29T16:51:35.277Z,63.70
2023-04-29T16:54:04.795Z,63.60
2023-04-29T16:56:32.933Z,63.60
2023-04-29T16:59:01.023Z,63.70
2023-04-29T17:01:29.587Z,63.80
2023-04-29T17:03:57.882Z,63.70
2023-04-29T17:06:26.229Z,63.50
2023-04-29T17:08:54.603Z,63.50
2023-04-29T17:11:24.988Z,63.40
2023-04-29T17:13:53.056Z,63.10
2023-04-29T17:16:21.538Z,63.00
2023-04-29T17:18:49.691Z,62.90
2023-04-29T17:21:17.977Z,63.60
2023-04-29T17:23:46.212Z,62.90
2023-04-29T17:26:14.318Z,63.10
2023-04-29T17:28:43.827Z,62.90
2023-04-29T17:31:11.988Z,62.80
2023-04-29T17:33:43.708Z,62.70
2023-04-29T17:36:11.781Z,62.70
2023-04-29T17:38:39.856Z,62.70
2023-04-29T17:41:08.183Z,62.70
2023-04-29T17:43:36.724Z,62.70
2023-04-29T17:46:06.278Z,62.80
2023-04-29T17:48:34.408Z,62.90
2023-04-29T17:51:02.504Z,63.00
2023-04-29T17:53:33.129Z,63.20
2023-04-29T17:56:01.291Z,63.40
2023-04-29T17:58:29.963Z,63.50
2023-04-29T18:00:59.110Z,63.70
2023-04-29T18:03:30.219Z,63.90
2023-04-29T18:05:58.849Z,64.00
2023-04-29T18:08:27.227Z,64.20
2023-04-29T18:10:55.319Z,64.50
2023-04-29T18:13:25.904Z,64.50
2023-04-29T18:15:55.346Z,64.60
2023-04-29T18:18:23.455Z,64.80
2023-04-29T18:20:52.988Z,64.90
2023-04-29T18:23:22.413Z,65.10
2023-04-29T18:25:50.542Z,65.30
2023-04-29T18:28:24.074Z,65.40
2023-04-29T18:30:53.329Z,65.40
2023-04-29T18:33:21.466Z,65.50
2023-04-29T18:35:49.804Z,65.60
2023-04-29T18:38:19.273Z,65.60
2023-04-29T18:40:48.390Z,65.60
2023-04-29T18:43:18.207Z,65.70
2023-04-29T18:45:46.586Z,65.80
2023-04-29T18:48:15.036Z,66.00
2023-04-29T18:50:43.593Z,66.10
2023-04-29T18:53:11.851Z,66.10
2023-04-29T18:55:41.312Z,66.30
2023-04-29T18:58:10.305Z,66.40
2023-04-29T19:00:38.699Z,66.40
2023-04-29T19:03:06.994Z,66.40
2023-04-29T19:05:35.307Z,66.50
2023-04-29T19:08:03.383Z,66.60
2023-04-29T19:10:31.488Z,66.70
2023-04-29T19:13:00.945Z,66.70
2023-04-29T19:15:29.067Z,66.80
2023-04-29T19:17:57.296Z,66.80
2023-04-29T19:20:25.573Z,66.80
2023-04-29T19:22:53.734Z,66.90
2023-04-29T19:25:22.224Z,67.10
2023-04-29T19:27:51.083Z,67.10
2023-04-29T19:30:21.053Z,67.20
2023-04-29T19:32:49.711Z,67.40
2023-04-29T19:35:17.857Z,67.40
2023-04-29T19:37:45.963Z,67.60
2023-04-29T19:40:14.082Z,67.80
2023-04-29T19:42:42.189Z,67.80
2023-04-29T19:45:12.584Z,67.90
2023-04-29T19:47:42.280Z,68.00
2023-04-29T19:50:11.008Z,68.20
2023-04-29T19:52:39.181Z,68.20
2023-04-29T19:55:08.969Z,68.30
2023-04-29T19:57:38.366Z,68.40
2023-04-29T20:00:08.582Z,68.50
2023-04-29T20:02:37.096Z,68.70
2023-04-29T20:05:07.336Z,68.70
2023-04-29T20:07:36.403Z,69.00
2023-04-29T20:10:05.158Z,68.90
2023-04-29T20:12:33.629Z,68.90
2023-04-29T20:15:01.783Z,68.90
2023-04-29T20:17:29.987Z,69.00
2023-04-29T20:19:58.178Z,69.00
2023-04-29T20:22:27.682Z,69.10
2023-04-29T20:24:55.776Z,69.30
2023-04-29T20:27:23.834Z,69.40
2023-04-29T20:29:52.099Z,69.50
2023-04-29T20:32:20.589Z,69.50
2023-04-29T20:34:49.200Z,69.60
2023-04-29T20:37:17.530Z,69.80
2023-04-29T20:39:47.056Z,69.90
2023-04-29T20:42:15.368Z,70.10
2023-04-29T20:44:43.706Z,70.10
2023-04-29T20:47:12.513Z,70.20
2023-04-29T20:49:40.646Z,70.40
2023-04-29T20:52:08.821Z,70.40
2023-04-29T20:54:36.910Z,70.40
2023-04-29T20:57:06.478Z,70.40
2023-04-29T20:59:34.696Z,70.30
2023-04-29T21:02:02.944Z,70.10
2023-04-29T21:04:31.064Z,70.30
2023-04-29T21:06:59.174Z,70.30
2023-04-29T21:09:27.466Z,70.30
2023-04-29T21:11:57.864Z,70.30
2023-04-29T21:14:27.419Z,70.30
2023-04-29T21:16:55.813Z,70.40
2023-04-29T21:19:24.081Z,70.30
2023-04-29T21:21:52.461Z,70.40
2023-04-29T21:24:20.590Z,70.50
2023-04-29T21:26:50.331Z,70.60
2023-04-29T21:29:19.879Z,70.70
2023-04-29T21:31:49.487Z,70.70
2023-04-29T21:34:17.754Z,70.80
2023-04-29T21:36:46.044Z,70.70
2023-04-29T21:39:14.142Z,70.80
2023-04-29T21:41:44.274Z,70.90
2023-04-29T21:44:13.408Z,71.20
2023-04-29T21:46:41.938Z,71.20
2023-04-29T21:49:11.438Z,71.30
2023-04-29T21:51:39.785Z,71.50
2023-04-29T21:54:08.592Z,71.60
2023-04-29T21:56:37.291Z,71.70
2023-04-29T21:59:05.415Z,71.90
2023-04-29T22:01:49.269Z,72.00
2023-04-29T22:04:19.066Z,72.00
2023-04-29T22:06:47.433Z,72.10
2023-04-29T22:09:16.137Z,72.00
2023-04-29T22:11:44.957Z,72.00
2023-04-29T22:14:13.079Z,72.00
2023-04-29T22:16:41.317Z,72.00
2023-04-29T22:19:09.548Z,72.00
2023-04-29T22:21:40.804Z,72.00
2023-04-29T22:24:09.333Z,72.10
2023-04-29T22:26:38.738Z,71.90
2023-04-29T22:29:06.857Z,72.00
2023-04-29T22:31:34.971Z,72.10
2023-04-29T22:34:03.063Z,72.20
2023-04-29T22:36:32.961Z,72.20
2023-04-29T22:39:05.669Z,72.30
2023-04-29T22:41:38.856Z,72.30
2023-04-29T22:44:07.944Z,72.40
2023-04-29T22:46:40.114Z,72.20
2023-04-29T22:49:10.055Z,72.40
2023-04-29T22:51:38.778Z,72.20
2023-04-29T22:54:22.647Z,72.10
2023-04-29T22:57:03.620Z,72.50
2023-04-29T22:59:32.343Z,72.10
2023-04-29T23:02:09.550Z,72.10
2023-04-29T23:04:43.697Z,72.10
2023-04-29T23:07:13.904Z,72.10
2023-04-29T23:09:44.740Z,72.00
2023-04-29T23:12:13.251Z,72.10
2023-04-29T23:14:43.604Z,72.00
2023-04-29T23:17:15.875Z,72.10
2023-04-29T23:19:50.101Z,72.20
2023-04-29T23:22:20.718Z,72.10
2023-04-29T23:24:54.264Z,72.20
2023-04-29T23:27:31.184Z,72.40
2023-04-29T23:30:01.194Z,72.50
2023-04-29T23:32:31.934Z,72.50
2023-04-29T23:35:00.414Z,72.60
2023-04-29T23:37:28.536Z,72.60
2023-04-29T23:39:58.210Z,72.70
2023-04-29T23:42:27.304Z,73.10
2023-04-29T23:44:55.390Z,73.20
2023-04-29T23:47:23.516Z,73.30
2023-04-29T23:49:51.917Z,73.70
2023-04-29T23:52:20.322Z,73.80
2023-04-29T23:54:48.581Z,73.80
2023-04-29T23:57:18.060Z,73.80
2023-04-29T23:59:46.258Z,74.70
